Conde S. Januário Hospital Heliport

MO-0001 · Macao

罗盘
风向 的 风向 160° 直升机
风: 4 kt, 2 beaufort
0 1.000 2.000 3.000 4.000 5.000
FEW 2.000 ft
METAR VMMC 291500Z 16004KT 9999 FEW020 24/23 Q1014 NOSIG

METAR Conde S. Januário Hospital Helipad - MO-0001

Conde S. Januário Hospital Helipad是,Macao中的直升机场。 该领域的国际民航组织标志是MO-0001.

这份报告是针对2022年11月29日 23:00, 当地时间在澳门国际机场进行的。

机场观察

风向为160°,速度为4 kt。

可见度为10 km 或者更多。

有几云在2.000 ft的高度。 没有观察到天花板。

温度和风寒是24 °C。 露点为23 °C,相对湿度为94%。 海平面上的气压为1014 hPa (QNH)。

白天

今天,太阳从06:46升起,在17:41降落。 这适用于Conde S. Januário Hospital Helipad,世界夏令时可能有所不同。 当地时间与世界标准时间之间的时差为+8 小时。 当前,没有夏令时有效。

公司介绍

我们没有关于这个机场的公司信息。

体会

到Vliegles.nl去找飞行课程,跳伞和其他飞行体验。 浏览页面,了解Conde S. Januário Hospital Helipad附近所有可用的活动。 你也可以使用搜索功能来寻找你所在地附近的特定飞行课程、跳伞或其他飞行体验。

乌云

2.000 ft FEW 几云

温度 & 天气

温度 24 °C
露点 23 °C
相对湿度 94%
Kp-index 2 (0-9)

白天

日出
06:46 (7:02)
中午
12:13
日落
17:40

小工具

你想在你的网站上有一个关于Conde S. Januário Hospital Helipad的当前航空天气(METAR)的小部件吗?

显示HTML代码

我们和第三方通过cookies跟踪您在我们网站上的互联网行为。如果你继续,我们认为你同意我们的饼干政策